sensor_id;sensor_type;location;lat;lon;timestamp;P1;P2;P0
72793;PMS5003;63436;26.334;50.194;2022-11-20T00:01:24;71;65;
72793;PMS5003;63436;26.334;50.194;2022-11-20T00:03:50;63;62;
72793;PMS5003;63436;26.334;50.194;2022-11-20T00:06:16;65;62;
72793;PMS5003;63436;26.334;50.194;2022-11-20T00:08:41;71;68;
72793;PMS5003;63436;26.334;50.194;2022-11-20T00:11:06;71;62;
72793;PMS5003;63436;26.334;50.194;2022-11-20T00:13:32;72;71;
72793;PMS5003;63436;26.334;50.194;2022-11-20T00:15:58;76;71;
72793;PMS5003;63436;26.334;50.194;2022-11-20T00:18:23;61;58;
72793;PMS5003;63436;26.334;50.194;2022-11-20T00:20:49;63;62;
72793;PMS5003;63436;26.334;50.194;2022-11-20T00:23:15;64;59;
72793;PMS5003;63436;26.334;50.194;2022-11-20T00:25:42;63;61;
72793;PMS5003;63436;26.334;50.194;2022-11-20T00:28:05;65;61;
72793;PMS5003;63436;26.334;50.194;2022-11-20T00:30:31;62;57;
72793;PMS5003;63436;26.334;50.194;2022-11-20T00:32:56;63;62;
72793;PMS5003;63436;26.334;50.194;2022-11-20T00:35:21;72;68;
72793;PMS5003;63436;26.334;50.194;2022-11-20T00:37:46;63;61;
72793;PMS5003;63436;26.334;50.194;2022-11-20T00:40:12;70;65;
72793;PMS5003;63436;26.334;50.194;2022-11-20T00:42:37;69;65;
72793;PMS5003;63436;26.334;50.194;2022-11-20T00:45:03;71;67;
72793;PMS5003;63436;26.334;50.194;2022-11-20T00:47:28;65;60;
72793;PMS5003;63436;26.334;50.194;2022-11-20T00:49:53;67;67;
72793;PMS5003;63436;26.334;50.194;2022-11-20T00:52:19;67;65;
72793;PMS5003;63436;26.334;50.194;2022-11-20T00:54:44;74;67;
72793;PMS5003;63436;26.334;50.194;2022-11-20T00:57:10;68;63;
72793;PMS5003;63436;26.334;50.194;2022-11-20T00:59:40;65;61;
72793;PMS5003;63436;26.334;50.194;2022-11-20T01:02:01;69;67;
72793;PMS5003;63436;26.334;50.194;2022-11-20T01:04:26;73;67;
72793;PMS5003;63436;26.334;50.194;2022-11-20T01:06:51;67;66;
72793;PMS5003;63436;26.334;50.194;2022-11-20T01:09:16;68;67;
72793;PMS5003;63436;26.334;50.194;2022-11-20T01:11:42;71;67;
72793;PMS5003;63436;26.334;50.194;2022-11-20T01:14:09;64;58;
72793;PMS5003;63436;26.334;50.194;2022-11-20T01:16:32;64;58;
72793;PMS5003;63436;26.334;50.194;2022-11-20T01:18:58;68;65;
72793;PMS5003;63436;26.334;50.194;2022-11-20T01:21:23;68;63;
72793;PMS5003;63436;26.334;50.194;2022-11-20T01:23:48;73;63;
72793;PMS5003;63436;26.334;50.194;2022-11-20T01:26:14;68;64;
72793;PMS5003;63436;26.334;50.194;2022-11-20T01:28:39;69;64;
72793;PMS5003;63436;26.334;50.194;2022-11-20T01:31:11;68;64;
72793;PMS5003;63436;26.334;50.194;2022-11-20T01:33:29;70;62;
72793;PMS5003;63436;26.334;50.194;2022-11-20T01:38:21;68;66;
72793;PMS5003;63436;26.334;50.194;2022-11-20T01:43:13;70;67;
72793;PMS5003;63436;26.334;50.194;2022-11-20T01:45:50;74;68;
72793;PMS5003;63436;26.334;50.194;2022-11-20T01:48:02;72;67;
72793;PMS5003;63436;26.334;50.194;2022-11-20T01:50:27;71;65;
72793;PMS5003;63436;26.334;50.194;2022-11-20T01:52:54;74;72;
72793;PMS5003;63436;26.334;50.194;2022-11-20T01:55:19;72;67;
72793;PMS5003;63436;26.334;50.194;2022-11-20T01:57:44;69;64;
72793;PMS5003;63436;26.334;50.194;2022-11-20T02:00:11;76;73;
72793;PMS5003;63436;26.334;50.194;2022-11-20T02:02:35;72;69;
72793;PMS5003;63436;26.334;50.194;2022-11-20T02:05:03;73;67;
72793;PMS5003;63436;26.334;50.194;2022-11-20T02:07:25;68;67;
72793;PMS5003;63436;26.334;50.194;2022-11-20T02:09:51;70;66;
72793;PMS5003;63436;26.334;50.194;2022-11-20T02:12:16;68;64;
72793;PMS5003;63436;26.334;50.194;2022-11-20T02:14:41;76;68;
72793;PMS5003;63436;26.334;50.194;2022-11-20T02:17:06;75;72;
72793;PMS5003;63436;26.334;50.194;2022-11-20T02:19:31;76;75;
72793;PMS5003;63436;26.334;50.194;2022-11-20T02:21:59;76;73;
72793;PMS5003;63436;26.334;50.194;2022-11-20T02:24:22;70;69;
72793;PMS5003;63436;26.334;50.194;2022-11-20T02:26:49;72;68;
72793;PMS5003;63436;26.334;50.194;2022-11-20T02:29:13;73;69;
72793;PMS5003;63436;26.334;50.194;2022-11-20T02:31:39;72;65;
72793;PMS5003;63436;26.334;50.194;2022-11-20T02:34:03;75;68;
72793;PMS5003;63436;26.334;50.194;2022-11-20T02:36:28;81;75;
72793;PMS5003;63436;26.334;50.194;2022-11-20T02:38:54;84;73;
72793;PMS5003;63436;26.334;50.194;2022-11-20T02:41:20;82;74;
72793;PMS5003;63436;26.334;50.194;2022-11-20T02:43:45;91;77;
72793;PMS5003;63436;26.334;50.194;2022-11-20T02:46:10;82;76;
72793;PMS5003;63436;26.334;50.194;2022-11-20T02:48:36;83;74;
72793;PMS5003;63436;26.334;50.194;2022-11-20T02:51:01;80;73;
72793;PMS5003;63436;26.334;50.194;2022-11-20T02:53:27;83;80;
72793;PMS5003;63436;26.334;50.194;2022-11-20T02:55:52;86;78;
72793;PMS5003;63436;26.334;50.194;2022-11-20T02:58:18;81;76;
72793;PMS5003;63436;26.334;50.194;2022-11-20T03:00:43;83;79;
72793;PMS5003;63436;26.334;50.194;2022-11-20T03:03:09;98;89;
72793;PMS5003;63436;26.334;50.194;2022-11-20T03:05:35;84;82;
72793;PMS5003;63436;26.334;50.194;2022-11-20T03:08:00;80;78;
72793;PMS5003;63436;26.334;50.194;2022-11-20T03:10:25;79;76;
72793;PMS5003;63436;26.334;50.194;2022-11-20T03:12:52;89;78;
72793;PMS5003;63436;26.334;50.194;2022-11-20T03:15:16;81;78;
72793;PMS5003;63436;26.334;50.194;2022-11-20T03:17:41;85;83;
72793;PMS5003;63436;26.334;50.194;2022-11-20T03:20:07;84;79;
72793;PMS5003;63436;26.334;50.194;2022-11-20T03:22:32;88;83;
72793;PMS5003;63436;26.334;50.194;2022-11-20T03:24:57;88;80;
72793;PMS5003;63436;26.334;50.194;2022-11-20T03:27:23;84;76;
72793;PMS5003;63436;26.334;50.194;2022-11-20T03:29:48;84;78;
72793;PMS5003;63436;26.334;50.194;2022-11-20T03:32:20;81;77;
72793;PMS5003;63436;26.334;50.194;2022-11-20T03:34:39;95;89;
72793;PMS5003;63436;26.334;50.194;2022-11-20T03:37:05;91;85;
72793;PMS5003;63436;26.334;50.194;2022-11-20T03:41:56;87;80;
72793;PMS5003;63436;26.334;50.194;2022-11-20T03:44:22;90;82;
72793;PMS5003;63436;26.334;50.194;2022-11-20T03:46:48;81;76;
72793;PMS5003;63436;26.334;50.194;2022-11-20T03:49:18;86;81;
72793;PMS5003;63436;26.334;50.194;2022-11-20T03:51:39;88;82;
72793;PMS5003;63436;26.334;50.194;2022-11-20T03:54:05;88;83;
72793;PMS5003;63436;26.334;50.194;2022-11-20T03:56:31;89;81;
72793;PMS5003;63436;26.334;50.194;2022-11-20T03:58:56;85;80;
72793;PMS5003;63436;26.334;50.194;2022-11-20T04:01:22;70;68;
72793;PMS5003;63436;26.334;50.194;2022-11-20T04:03:54;83;78;
72793;PMS5003;63436;26.334;50.194;2022-11-20T04:06:14;82;79;
72793;PMS5003;63436;26.334;50.194;2022-11-20T04:08:38;79;76;
72793;PMS5003;63436;26.334;50.194;2022-11-20T04:11:10;84;77;
72793;PMS5003;63436;26.334;50.194;2022-11-20T04:13:29;118;110;
72793;PMS5003;63436;26.334;50.194;2022-11-20T04:15:56;95;85;
72793;PMS5003;63436;26.334;50.194;2022-11-20T04:18:19;74;69;
72793;PMS5003;63436;26.334;50.194;2022-11-20T04:20:45;85;78;
72793;PMS5003;63436;26.334;50.194;2022-11-20T04:23:11;76;71;
72793;PMS5003;63436;26.334;50.194;2022-11-20T04:25:36;83;77;
72793;PMS5003;63436;26.334;50.194;2022-11-20T04:28:01;82;77;
72793;PMS5003;63436;26.334;50.194;2022-11-20T04:30:26;86;72;
72793;PMS5003;63436;26.334;50.194;2022-11-20T04:32:52;101;87;
72793;PMS5003;63436;26.334;50.194;2022-11-20T04:35:17;77;70;
72793;PMS5003;63436;26.334;50.194;2022-11-20T04:37:42;88;77;
72793;PMS5003;63436;26.334;50.194;2022-11-20T04:40:08;80;72;
72793;PMS5003;63436;26.334;50.194;2022-11-20T04:42:34;82;73;
72793;PMS5003;63436;26.334;50.194;2022-11-20T04:44:59;74;71;
72793;PMS5003;63436;26.334;50.194;2022-11-20T04:47:25;76;73;
72793;PMS5003;63436;26.334;50.194;2022-11-20T04:49:50;82;77;
72793;PMS5003;63436;26.334;50.194;2022-11-20T04:52:16;79;75;
72793;PMS5003;63436;26.334;50.194;2022-11-20T04:54:41;96;85;
72793;PMS5003;63436;26.334;50.194;2022-11-20T04:57:07;78;73;
72793;PMS5003;63436;26.334;50.194;2022-11-20T04:59:32;83;73;
72793;PMS5003;63436;26.334;50.194;2022-11-20T05:01:57;76;74;
72793;PMS5003;63436;26.334;50.194;2022-11-20T05:04:23;81;73;
72793;PMS5003;63436;26.334;50.194;2022-11-20T05:06:49;72;67;
72793;PMS5003;63436;26.334;50.194;2022-11-20T05:09:14;76;73;
72793;PMS5003;63436;26.334;50.194;2022-11-20T05:11:39;83;76;
72793;PMS5003;63436;26.334;50.194;2022-11-20T05:14:05;87;80;
72793;PMS5003;63436;26.334;50.194;2022-11-20T05:16:30;79;78;
72793;PMS5003;63436;26.334;50.194;2022-11-20T05:18:56;75;72;
72793;PMS5003;63436;26.334;50.194;2022-11-20T05:21:21;83;79;
72793;PMS5003;63436;26.334;50.194;2022-11-20T05:23:47;81;75;
72793;PMS5003;63436;26.334;50.194;2022-11-20T05:26:13;88;74;
72793;PMS5003;63436;26.334;50.194;2022-11-20T05:28:38;83;78;
72793;PMS5003;63436;26.334;50.194;2022-11-20T05:31:04;84;80;
72793;PMS5003;63436;26.334;50.194;2022-11-20T05:33:30;90;81;
72793;PMS5003;63436;26.334;50.194;2022-11-20T05:35:57;95;83;
72793;PMS5003;63436;26.334;50.194;2022-11-20T05:38:20;88;81;
72793;PMS5003;63436;26.334;50.194;2022-11-20T05:40:46;86;78;
72793;PMS5003;63436;26.334;50.194;2022-11-20T05:43:11;86;80;
72793;PMS5003;63436;26.334;50.194;2022-11-20T05:45:36;79;77;
72793;PMS5003;63436;26.334;50.194;2022-11-20T05:48:02;84;76;
72793;PMS5003;63436;26.334;50.194;2022-11-20T05:50:27;78;73;
72793;PMS5003;63436;26.334;50.194;2022-11-20T05:52:52;81;78;
72793;PMS5003;63436;26.334;50.194;2022-11-20T05:55:18;83;75;
72793;PMS5003;63436;26.334;50.194;2022-11-20T05:57:43;79;75;
72793;PMS5003;63436;26.334;50.194;2022-11-20T06:00:09;82;76;
72793;PMS5003;63436;26.334;50.194;2022-11-20T06:02:34;80;76;
72793;PMS5003;63436;26.334;50.194;2022-11-20T06:05:00;83;79;
72793;PMS5003;63436;26.334;50.194;2022-11-20T06:07:25;80;73;
72793;PMS5003;63436;26.334;50.194;2022-11-20T06:09:50;78;73;
72793;PMS5003;63436;26.334;50.194;2022-11-20T06:12:16;74;70;
72793;PMS5003;63436;26.334;50.194;2022-11-20T06:14:42;83;74;
72793;PMS5003;63436;26.334;50.194;2022-11-20T06:17:07;71;68;
72793;PMS5003;63436;26.334;50.194;2022-11-20T06:19:32;73;69;
72793;PMS5003;63436;26.334;50.194;2022-11-20T06:21:57;81;69;
72793;PMS5003;63436;26.334;50.194;2022-11-20T06:24:23;78;71;
72793;PMS5003;63436;26.334;50.194;2022-11-20T06:26:48;87;78;
72793;PMS5003;63436;26.334;50.194;2022-11-20T06:29:14;79;76;
72793;PMS5003;63436;26.334;50.194;2022-11-20T06:31:40;85;78;
72793;PMS5003;63436;26.334;50.194;2022-11-20T06:34:05;85;80;
72793;PMS5003;63436;26.334;50.194;2022-11-20T06:36:30;76;74;
72793;PMS5003;63436;26.334;50.194;2022-11-20T06:38:56;70;64;
72793;PMS5003;63436;26.334;50.194;2022-11-20T06:41:21;72;70;
72793;PMS5003;63436;26.334;50.194;2022-11-20T06:43:46;69;62;
72793;PMS5003;63436;26.334;50.194;2022-11-20T06:46:12;68;62;
72793;PMS5003;63436;26.334;50.194;2022-11-20T06:48:37;64;60;
72793;PMS5003;63436;26.334;50.194;2022-11-20T06:51:02;71;63;
72793;PMS5003;63436;26.334;50.194;2022-11-20T06:53:28;73;68;
72793;PMS5003;63436;26.334;50.194;2022-11-20T06:55:55;70;67;
72793;PMS5003;63436;26.334;50.194;2022-11-20T06:58:18;63;59;
72793;PMS5003;63436;26.334;50.194;2022-11-20T07:00:44;60;59;
72793;PMS5003;63436;26.334;50.194;2022-11-20T07:03:10;62;61;
72793;PMS5003;63436;26.334;50.194;2022-11-20T07:05:35;67;59;
72793;PMS5003;63436;26.334;50.194;2022-11-20T07:08:00;77;68;
72793;PMS5003;63436;26.334;50.194;2022-11-20T07:10:25;68;60;
72793;PMS5003;63436;26.334;50.194;2022-11-20T07:12:51;64;59;
72793;PMS5003;63436;26.334;50.194;2022-11-20T07:15:16;62;59;
72793;PMS5003;63436;26.334;50.194;2022-11-20T07:17:42;72;61;
72793;PMS5003;63436;26.334;50.194;2022-11-20T07:20:08;63;62;
72793;PMS5003;63436;26.334;50.194;2022-11-20T07:22:33;69;59;
72793;PMS5003;63436;26.334;50.194;2022-11-20T07:24:59;61;57;
72793;PMS5003;63436;26.334;50.194;2022-11-20T07:27:24;58;53;
72793;PMS5003;63436;26.334;50.194;2022-11-20T07:29:50;55;52;
72793;PMS5003;63436;26.334;50.194;2022-11-20T07:32:15;61;55;
72793;PMS5003;63436;26.334;50.194;2022-11-20T07:34:41;64;57;
72793;PMS5003;63436;26.334;50.194;2022-11-20T07:37:06;54;50;
72793;PMS5003;63436;26.334;50.194;2022-11-20T07:39:32;58;58;
72793;PMS5003;63436;26.334;50.194;2022-11-20T07:41:57;61;58;
72793;PMS5003;63436;26.334;50.194;2022-11-20T07:44:23;63;57;
72793;PMS5003;63436;26.334;50.194;2022-11-20T07:46:49;64;59;
72793;PMS5003;63436;26.334;50.194;2022-11-20T07:49:15;63;61;
72793;PMS5003;63436;26.334;50.194;2022-11-20T07:51:40;55;55;
72793;PMS5003;63436;26.334;50.194;2022-11-20T07:54:05;62;53;
72793;PMS5003;63436;26.334;50.194;2022-11-20T07:56:30;56;56;
72793;PMS5003;63436;26.334;50.194;2022-11-20T07:58:56;70;65;
72793;PMS5003;63436;26.334;50.194;2022-11-20T08:01:21;64;58;
72793;PMS5003;63436;26.334;50.194;2022-11-20T08:03:46;60;56;
72793;PMS5003;63436;26.334;50.194;2022-11-20T08:06:12;62;60;
72793;PMS5003;63436;26.334;50.194;2022-11-20T08:08:37;66;56;
72793;PMS5003;63436;26.334;50.194;2022-11-20T08:11:03;68;58;
72793;PMS5003;63436;26.334;50.194;2022-11-20T08:13:28;60;59;
72793;PMS5003;63436;26.334;50.194;2022-11-20T08:15:54;67;62;
72793;PMS5003;63436;26.334;50.194;2022-11-20T08:18:20;56;52;
72793;PMS5003;63436;26.334;50.194;2022-11-20T08:20:46;66;60;
72793;PMS5003;63436;26.334;50.194;2022-11-20T08:23:11;77;74;
72793;PMS5003;63436;26.334;50.194;2022-11-20T08:25:37;62;59;
72793;PMS5003;63436;26.334;50.194;2022-11-20T08:28:02;66;60;
72793;PMS5003;63436;26.334;50.194;2022-11-20T08:30:27;63;58;
72793;PMS5003;63436;26.334;50.194;2022-11-20T08:32:52;55;54;
72793;PMS5003;63436;26.334;50.194;2022-11-20T08:35:18;62;56;
72793;PMS5003;63436;26.334;50.194;2022-11-20T08:37:45;64;55;
72793;PMS5003;63436;26.334;50.194;2022-11-20T08:40:10;58;53;
72793;PMS5003;63436;26.334;50.194;2022-11-20T08:42:34;57;52;
72793;PMS5003;63436;26.334;50.194;2022-11-20T08:45:00;69;58;
72793;PMS5003;63436;26.334;50.194;2022-11-20T08:47:25;57;50;
72793;PMS5003;63436;26.334;50.194;2022-11-20T08:49:51;58;52;
72793;PMS5003;63436;26.334;50.194;2022-11-20T08:52:17;54;50;
72793;PMS5003;63436;26.334;50.194;2022-11-20T08:54:42;50;46;
72793;PMS5003;63436;26.334;50.194;2022-11-20T08:57:08;52;50;
72793;PMS5003;63436;26.334;50.194;2022-11-20T08:59:33;54;50;
72793;PMS5003;63436;26.334;50.194;2022-11-20T09:01:58;47;47;
72793;PMS5003;63436;26.334;50.194;2022-11-20T09:04:24;53;50;
72793;PMS5003;63436;26.334;50.194;2022-11-20T09:06:49;50;48;
72793;PMS5003;63436;26.334;50.194;2022-11-20T09:09:15;52;48;
72793;PMS5003;63436;26.334;50.194;2022-11-20T09:11:40;53;52;
72793;PMS5003;63436;26.334;50.194;2022-11-20T09:14:06;54;50;
72793;PMS5003;63436;26.334;50.194;2022-11-20T09:16:31;51;45;
72793;PMS5003;63436;26.334;50.194;2022-11-20T09:18:56;58;48;
72793;PMS5003;63436;26.334;50.194;2022-11-20T09:21:22;56;53;
72793;PMS5003;63436;26.334;50.194;2022-11-20T09:23:47;54;48;
72793;PMS5003;63436;26.334;50.194;2022-11-20T09:26:13;54;54;
72793;PMS5003;63436;26.334;50.194;2022-11-20T09:28:37;55;48;
72793;PMS5003;63436;26.334;50.194;2022-11-20T09:31:04;55;50;
72793;PMS5003;63436;26.334;50.194;2022-11-20T09:33:28;56;52;
72793;PMS5003;63436;26.334;50.194;2022-11-20T09:35:54;50;49;
72793;PMS5003;63436;26.334;50.194;2022-11-20T09:38:19;54;49;
72793;PMS5003;63436;26.334;50.194;2022-11-20T09:40:46;54;51;
72793;PMS5003;63436;26.334;50.194;2022-11-20T09:43:11;54;54;
72793;PMS5003;63436;26.334;50.194;2022-11-20T09:45:38;62;57;
72793;PMS5003;63436;26.334;50.194;2022-11-20T09:48:05;56;54;
72793;PMS5003;63436;26.334;50.194;2022-11-20T09:50:28;57;55;
72793;PMS5003;63436;26.334;50.194;2022-11-20T09:52:55;56;53;
72793;PMS5003;63436;26.334;50.194;2022-11-20T09:55:17;54;52;
72793;PMS5003;63436;26.334;50.194;2022-11-20T09:57:43;59;54;
72793;PMS5003;63436;26.334;50.194;2022-11-20T10:00:10;60;57;
72793;PMS5003;63436;26.334;50.194;2022-11-20T10:02:35;59;56;
72793;PMS5003;63436;26.334;50.194;2022-11-20T10:05:00;60;55;
72793;PMS5003;63436;26.334;50.194;2022-11-20T10:07:27;58;56;
72793;PMS5003;63436;26.334;50.194;2022-11-20T10:09:51;60;60;
72793;PMS5003;63436;26.334;50.194;2022-11-20T10:12:18;64;60;
72793;PMS5003;63436;26.334;50.194;2022-11-20T10:14:44;59;58;
72793;PMS5003;63436;26.334;50.194;2022-11-20T10:17:11;59;55;
72793;PMS5003;63436;26.334;50.194;2022-11-20T10:19:36;59;57;
72793;PMS5003;63436;26.334;50.194;2022-11-20T10:21:58;60;58;
72793;PMS5003;63436;26.334;50.194;2022-11-20T10:24:29;66;65;
72793;PMS5003;63436;26.334;50.194;2022-11-20T10:26:48;59;58;
72793;PMS5003;63436;26.334;50.194;2022-11-20T10:29:13;59;56;
72793;PMS5003;63436;26.334;50.194;2022-11-20T10:31:39;65;54;
72793;PMS5003;63436;26.334;50.194;2022-11-20T10:34:06;66;64;
72793;PMS5003;63436;26.334;50.194;2022-11-20T10:36:30;64;59;
72793;PMS5003;63436;26.334;50.194;2022-11-20T10:38:56;70;66;
72793;PMS5003;63436;26.334;50.194;2022-11-20T10:41:22;67;64;
72793;PMS5003;63436;26.334;50.194;2022-11-20T10:43:46;66;62;
72793;PMS5003;63436;26.334;50.194;2022-11-20T10:46:12;56;53;
72793;PMS5003;63436;26.334;50.194;2022-11-20T10:48:37;69;64;
72793;PMS5003;63436;26.334;50.194;2022-11-20T10:55:54;67;61;
72793;PMS5003;63436;26.334;50.194;2022-11-20T10:58:20;73;67;
72793;PMS5003;63436;26.334;50.194;2022-11-20T11:00:44;69;67;
72793;PMS5003;63436;26.334;50.194;2022-11-20T11:03:14;63;62;
72793;PMS5003;63436;26.334;50.194;2022-11-20T11:05:37;71;64;
72793;PMS5003;63436;26.334;50.194;2022-11-20T11:08:01;71;68;
72793;PMS5003;63436;26.334;50.194;2022-11-20T11:10:29;71;67;
72793;PMS5003;63436;26.334;50.194;2022-11-20T11:12:52;74;71;
72793;PMS5003;63436;26.334;50.194;2022-11-20T11:17:46;65;61;
72793;PMS5003;63436;26.334;50.194;2022-11-20T11:22:34;61;58;
72793;PMS5003;63436;26.334;50.194;2022-11-20T11:24:58;65;62;
72793;PMS5003;63436;26.334;50.194;2022-11-20T11:27:24;58;51;
72793;PMS5003;63436;26.334;50.194;2022-11-20T11:29:50;54;48;
72793;PMS5003;63436;26.334;50.194;2022-11-20T11:32:15;51;46;
72793;PMS5003;63436;26.334;50.194;2022-11-20T11:34:40;41;41;
72793;PMS5003;63436;26.334;50.194;2022-11-20T11:37:09;40;39;
72793;PMS5003;63436;26.334;50.194;2022-11-20T11:39:31;34;34;
72793;PMS5003;63436;26.334;50.194;2022-11-20T11:41:56;43;37;
72793;PMS5003;63436;26.334;50.194;2022-11-20T11:44:22;40;38;
72793;PMS5003;63436;26.334;50.194;2022-11-20T11:46:50;39;37;
72793;PMS5003;63436;26.334;50.194;2022-11-20T11:49:15;34;33;
72793;PMS5003;63436;26.334;50.194;2022-11-20T11:51:38;36;34;
72793;PMS5003;63436;26.334;50.194;2022-11-20T11:54:04;37;35;
72793;PMS5003;63436;26.334;50.194;2022-11-20T11:56:28;50;38;
72793;PMS5003;63436;26.334;50.194;2022-11-20T11:58:54;36;32;
72793;PMS5003;63436;26.334;50.194;2022-11-20T12:01:24;32;31;
72793;PMS5003;63436;26.334;50.194;2022-11-20T12:03:48;35;32;
72793;PMS5003;63436;26.334;50.194;2022-11-20T12:06:12;33;30;
72793;PMS5003;63436;26.334;50.194;2022-11-20T12:08:40;30;29;
72793;PMS5003;63436;26.334;50.194;2022-11-20T12:11:04;31;31;
72793;PMS5003;63436;26.334;50.194;2022-11-20T12:13:32;32;31;
72793;PMS5003;63436;26.334;50.194;2022-11-20T12:15:53;31;27;
72793;PMS5003;63436;26.334;50.194;2022-11-20T12:18:18;30;27;
72793;PMS5003;63436;26.334;50.194;2022-11-20T12:20:45;30;25;
72793;PMS5003;63436;26.334;50.194;2022-11-20T12:23:09;30;27;
72793;PMS5003;63436;26.334;50.194;2022-11-20T12:25:35;27;26;
72793;PMS5003;63436;26.334;50.194;2022-11-20T12:28:03;25;22;
72793;PMS5003;63436;26.334;50.194;2022-11-20T12:30:24;30;25;
72793;PMS5003;63436;26.334;50.194;2022-11-20T12:32:54;27;22;
72793;PMS5003;63436;26.334;50.194;2022-11-20T12:35:21;27;22;
72793;PMS5003;63436;26.334;50.194;2022-11-20T12:37:42;23;22;
72793;PMS5003;63436;26.334;50.194;2022-11-20T12:42:36;20;20;
72793;PMS5003;63436;26.334;50.194;2022-11-20T12:45:02;20;20;
72793;PMS5003;63436;26.334;50.194;2022-11-20T12:47:23;26;20;
72793;PMS5003;63436;26.334;50.194;2022-11-20T12:49:48;25;23;
72793;PMS5003;63436;26.334;50.194;2022-11-20T12:52:16;25;23;
72793;PMS5003;63436;26.334;50.194;2022-11-20T12:54:43;27;25;
72793;PMS5003;63436;26.334;50.194;2022-11-20T12:57:05;30;26;
72793;PMS5003;63436;26.334;50.194;2022-11-20T12:59:34;20;18;
72793;PMS5003;63436;26.334;50.194;2022-11-20T13:01:55;23;19;
72793;PMS5003;63436;26.334;50.194;2022-11-20T13:04:26;18;18;
72793;PMS5003;63436;26.334;50.194;2022-11-20T13:06:45;30;23;
72793;PMS5003;63436;26.334;50.194;2022-11-20T13:09:12;23;22;
72793;PMS5003;63436;26.334;50.194;2022-11-20T13:11:37;24;19;
72793;PMS5003;63436;26.334;50.194;2022-11-20T13:14:05;23;22;
72793;PMS5003;63436;26.334;50.194;2022-11-20T13:16:29;20;20;
72793;PMS5003;63436;26.334;50.194;2022-11-20T13:18:52;22;20;
72793;PMS5003;63436;26.334;50.194;2022-11-20T13:21:18;21;17;
72793;PMS5003;63436;26.334;50.194;2022-11-20T13:23:43;25;22;
72793;PMS5003;63436;26.334;50.194;2022-11-20T13:28:34;23;20;
72793;PMS5003;63436;26.334;50.194;2022-11-20T13:30:59;18;18;
72793;PMS5003;63436;26.334;50.194;2022-11-20T13:33:28;23;17;
72793;PMS5003;63436;26.334;50.194;2022-11-20T13:35:55;19;19;
72793;PMS5003;63436;26.334;50.194;2022-11-20T13:38:16;20;20;
72793;PMS5003;63436;26.334;50.194;2022-11-20T13:43:10;22;22;
72793;PMS5003;63436;26.334;50.194;2022-11-20T13:45:32;18;18;
72793;PMS5003;63436;26.334;50.194;2022-11-20T13:47:58;22;20;
72793;PMS5003;63436;26.334;50.194;2022-11-20T13:50:27;22;19;
72793;PMS5003;63436;26.334;50.194;2022-11-20T13:52:50;23;19;
72793;PMS5003;63436;26.334;50.194;2022-11-20T13:55:17;23;22;
72793;PMS5003;63436;26.334;50.194;2022-11-20T13:57:51;26;22;
72793;PMS5003;63436;26.334;50.194;2022-11-20T14:00:09;20;20;
72793;PMS5003;63436;26.334;50.194;2022-11-20T14:02:31;17;17;
72793;PMS5003;63436;26.334;50.194;2022-11-20T14:04:57;21;21;
72793;PMS5003;63436;26.334;50.194;2022-11-20T14:07:24;22;21;
72793;PMS5003;63436;26.334;50.194;2022-11-20T14:09:50;22;21;
72793;PMS5003;63436;26.334;50.194;2022-11-20T14:12:15;24;24;
72793;PMS5003;63436;26.334;50.194;2022-11-20T14:14:46;21;19;
72793;PMS5003;63436;26.334;50.194;2022-11-20T14:17:05;28;26;
72793;PMS5003;63436;26.334;50.194;2022-11-20T14:19:29;27;24;
72793;PMS5003;63436;26.334;50.194;2022-11-20T14:22:08;26;24;
72793;PMS5003;63436;26.334;50.194;2022-11-20T14:24:21;22;22;
72793;PMS5003;63436;26.334;50.194;2022-11-20T14:26:46;27;24;
72793;PMS5003;63436;26.334;50.194;2022-11-20T14:29:12;25;23;
72793;PMS5003;63436;26.334;50.194;2022-11-20T14:31:36;25;22;
72793;PMS5003;63436;26.334;50.194;2022-11-20T14:34:01;24;24;
72793;PMS5003;63436;26.334;50.194;2022-11-20T14:36:27;27;27;
72793;PMS5003;63436;26.334;50.194;2022-11-20T14:38:52;30;26;
72793;PMS5003;63436;26.334;50.194;2022-11-20T14:41:17;25;24;
72793;PMS5003;63436;26.334;50.194;2022-11-20T14:43:45;28;25;
72793;PMS5003;63436;26.334;50.194;2022-11-20T14:46:08;37;33;
72793;PMS5003;63436;26.334;50.194;2022-11-20T14:48:33;34;29;
72793;PMS5003;63436;26.334;50.194;2022-11-20T14:51:00;33;28;
72793;PMS5003;63436;26.334;50.194;2022-11-20T14:53:24;55;51;
72793;PMS5003;63436;26.334;50.194;2022-11-20T14:55:54;31;28;
72793;PMS5003;63436;26.334;50.194;2022-11-20T14:58:21;25;25;
72793;PMS5003;63436;26.334;50.194;2022-11-20T15:00:41;31;28;
72793;PMS5003;63436;26.334;50.194;2022-11-20T15:10:22;32;29;
72793;PMS5003;63436;26.334;50.194;2022-11-20T15:12:47;34;30;
72793;PMS5003;63436;26.334;50.194;2022-11-20T15:15:13;31;29;
72793;PMS5003;63436;26.334;50.194;2022-11-20T15:17:38;36;34;
72793;PMS5003;63436;26.334;50.194;2022-11-20T15:20:04;35;32;
72793;PMS5003;63436;26.334;50.194;2022-11-20T15:22:29;32;30;
72793;PMS5003;63436;26.334;50.194;2022-11-20T15:24:55;33;32;
72793;PMS5003;63436;26.334;50.194;2022-11-20T15:27:20;42;38;
72793;PMS5003;63436;26.334;50.194;2022-11-20T15:29:45;40;33;
72793;PMS5003;63436;26.334;50.194;2022-11-20T15:32:10;36;33;
72793;PMS5003;63436;26.334;50.194;2022-11-20T15:34:36;42;40;
72793;PMS5003;63436;26.334;50.194;2022-11-20T15:37:01;37;33;
72793;PMS5003;63436;26.334;50.194;2022-11-20T15:39:27;36;34;
72793;PMS5003;63436;26.334;50.194;2022-11-20T15:41:52;32;32;
72793;PMS5003;63436;26.334;50.194;2022-11-20T15:44:18;32;31;
72793;PMS5003;63436;26.334;50.194;2022-11-20T15:46:43;38;33;
72793;PMS5003;63436;26.334;50.194;2022-11-20T15:49:09;39;34;
72793;PMS5003;63436;26.334;50.194;2022-11-20T15:51:34;37;33;
72793;PMS5003;63436;26.334;50.194;2022-11-20T15:53:59;38;34;
72793;PMS5003;63436;26.334;50.194;2022-11-20T15:56:24;39;34;
72793;PMS5003;63436;26.334;50.194;2022-11-20T15:58:50;34;33;
72793;PMS5003;63436;26.334;50.194;2022-11-20T16:01:16;35;34;
72793;PMS5003;63436;26.334;50.194;2022-11-20T16:03:41;35;31;
72793;PMS5003;63436;26.334;50.194;2022-11-20T16:06:06;34;34;
72793;PMS5003;63436;26.334;50.194;2022-11-20T16:08:32;35;33;
72793;PMS5003;63436;26.334;50.194;2022-11-20T16:11:00;38;33;
72793;PMS5003;63436;26.334;50.194;2022-11-20T16:13:23;37;37;
72793;PMS5003;63436;26.334;50.194;2022-11-20T16:15:51;39;37;
72793;PMS5003;63436;26.334;50.194;2022-11-20T16:18:15;38;33;
72793;PMS5003;63436;26.334;50.194;2022-11-20T16:20:39;38;31;